createdAt,value
2019-04-26T00:01:24.140Z,1.03
2019-04-26T00:03:54.690Z,1.20
2019-04-26T00:06:25.057Z,1.67
2019-04-26T00:09:03.340Z,1.60
2019-04-26T00:11:39.068Z,1.10
2019-04-26T00:14:14.220Z,1.33
2019-04-26T00:16:45.576Z,1.20
2019-04-26T00:19:16.480Z,1.17
2019-04-26T00:21:46.388Z,0.80
2019-04-26T00:24:17.298Z,1.73
2019-04-26T00:26:47.310Z,1.10
2019-04-26T00:29:17.413Z,1.30
2019-04-26T00:31:52.776Z,1.23
2019-04-26T00:34:26.692Z,1.00
2019-04-26T00:36:57.620Z,2.00
2019-04-26T00:39:27.740Z,1.20
2019-04-26T00:41:59.686Z,1.10
2019-04-26T00:44:29.948Z,1.30
2019-04-26T00:47:03.748Z,0.97
2019-04-26T00:49:43.470Z,0.90
2019-04-26T00:52:11.275Z,1.30
2019-04-26T00:54:42.453Z,1.20
2019-04-26T00:57:14.616Z,1.60
2019-04-26T00:59:44.618Z,2.00
2019-04-26T01:02:31.085Z,1.20
2019-04-26T01:05:01.756Z,1.37
2019-04-26T01:07:31.717Z,1.33
2019-04-26T01:10:02.832Z,1.13
2019-04-26T01:12:32.925Z,1.43
2019-04-26T01:15:06.927Z,1.20
2019-04-26T01:17:38.954Z,1.40
2019-04-26T01:20:09.850Z,1.33
2019-04-26T01:22:42.746Z,1.13
2019-04-26T01:25:38.066Z,1.10
2019-04-26T01:28:13.725Z,1.17
2019-04-26T01:30:44.932Z,1.17
2019-04-26T01:33:15.253Z,1.80
2019-04-26T01:35:45.335Z,1.00
2019-04-26T01:38:17.498Z,1.40
2019-04-26T01:40:49.256Z,1.20
2019-04-26T01:43:22.710Z,1.07
2019-04-26T01:45:58.533Z,1.20
2019-04-26T01:48:45.910Z,1.00
2019-04-26T01:51:24.804Z,1.30
2019-04-26T01:53:54.987Z,1.20
2019-04-26T01:56:29.690Z,1.00
2019-04-26T01:58:59.972Z,1.50
2019-04-26T02:01:32.812Z,1.33
2019-04-26T02:04:02.641Z,1.97
2019-04-26T02:06:35.321Z,1.20
2019-04-26T02:09:10.100Z,1.43
2019-04-26T02:11:46.216Z,1.20
2019-04-26T02:14:20.407Z,1.50
2019-04-26T02:16:50.906Z,1.97
2019-04-26T02:19:23.148Z,1.50
2019-04-26T02:21:58.882Z,1.40
2019-04-26T02:24:32.292Z,1.37
2019-04-26T02:27:04.765Z,1.00
2019-04-26T02:29:34.938Z,0.90
2019-04-26T02:32:07.766Z,1.50
2019-04-26T02:34:38.455Z,1.03
2019-04-26T02:37:12.281Z,1.63
2019-04-26T02:39:42.881Z,0.97
2019-04-26T02:42:23.463Z,1.30
2019-04-26T02:45:05.474Z,1.27
2019-04-26T02:47:47.081Z,1.60
2019-04-26T02:50:30.296Z,1.60
2019-04-26T02:53:12.292Z,1.13
2019-04-26T02:56:21.110Z,1.03
2019-04-26T02:59:02.211Z,0.93
2019-04-26T03:01:34.076Z,1.47
2019-04-26T03:04:04.204Z,1.30
2019-04-26T03:06:40.767Z,1.23
2019-04-26T03:09:15.896Z,1.10
2019-04-26T03:11:51.532Z,1.33
2019-04-26T03:14:23.381Z,1.40
2019-04-26T03:17:17.781Z,1.70
2019-04-26T03:20:09.505Z,1.10
2019-04-26T03:22:49.632Z,1.70
2019-04-26T03:25:38.854Z,1.60
2019-04-26T03:28:46.970Z,1.33
2019-04-26T03:31:53.048Z,1.23
2019-04-26T03:34:39.292Z,1.40
2019-04-26T03:37:34.541Z,1.90
2019-04-26T03:40:50.102Z,1.40
2019-04-26T03:43:57.856Z,1.60
2019-04-26T03:46:41.279Z,1.30
2019-04-26T03:49:46.923Z,1.97
2019-04-26T03:52:37.922Z,1.30
2019-04-26T03:55:53.906Z,1.10
2019-04-26T03:58:56.885Z,1.30
2019-04-26T04:01:48.889Z,1.50
2019-04-26T04:04:39.612Z,1.53
2019-04-26T04:07:14.599Z,1.43
2019-04-26T04:10:13.412Z,1.77
2019-04-26T04:13:03.036Z,1.50
2019-04-26T04:15:38.574Z,1.20
2019-04-26T04:18:21.965Z,1.30
2019-04-26T04:21:25.889Z,1.63
2019-04-26T04:24:13.595Z,1.70
2019-04-26T04:27:09.241Z,1.43
2019-04-26T04:30:16.814Z,1.60
2019-04-26T04:33:12.318Z,1.40
2019-04-26T04:35:56.334Z,1.90
2019-04-26T04:38:50.126Z,1.50
2019-04-26T04:41:57.854Z,1.37
2019-04-26T04:45:09.989Z,1.20
2019-04-26T04:48:16.509Z,1.90
2019-04-26T04:50:56.966Z,1.87
2019-04-26T04:53:44.729Z,2.17
2019-04-26T04:56:35.063Z,1.90
2019-04-26T04:59:48.129Z,1.93
2019-04-26T05:02:22.676Z,2.03
2019-04-26T05:05:20.069Z,1.53
2019-04-26T05:08:22.501Z,1.80
2019-04-26T05:11:16.869Z,2.23
2019-04-26T05:13:58.624Z,1.50
2019-04-26T05:16:52.627Z,1.80
2019-04-26T05:19:57.525Z,1.80
2019-04-26T05:22:55.474Z,1.60
2019-04-26T05:26:12.226Z,1.50
2019-04-26T05:29:19.997Z,1.73
2019-04-26T05:32:11.977Z,1.67
2019-04-26T05:35:08.725Z,1.80
2019-04-26T05:38:00.371Z,1.80
2019-04-26T05:41:25.069Z,1.70
2019-04-26T05:45:09.532Z,1.57
2019-04-26T05:48:22.489Z,1.87
2019-04-26T05:51:37.105Z,1.50
2019-04-26T05:54:37.289Z,1.50
2019-04-26T05:57:51.140Z,1.40
2019-04-26T06:00:50.570Z,1.33
2019-04-26T06:03:49.664Z,1.63
2019-04-26T06:06:38.269Z,1.73
2019-04-26T06:10:05.237Z,1.60
2019-04-26T06:13:18.964Z,1.77
2019-04-26T06:16:07.701Z,1.30
2019-04-26T06:19:01.709Z,1.60
2019-04-26T06:21:52.167Z,1.50
2019-04-26T06:24:42.351Z,1.73
2019-04-26T06:27:45.563Z,1.70
2019-04-26T06:30:45.550Z,1.70
2019-04-26T06:33:21.117Z,2.40
2019-04-26T06:35:59.345Z,2.10
2019-04-26T06:38:59.956Z,1.60
2019-04-26T06:42:02.869Z,2.00
2019-04-26T06:44:50.885Z,1.90
2019-04-26T06:47:27.237Z,2.10
2019-04-26T06:50:16.230Z,1.70
2019-04-26T06:53:17.677Z,2.00
2019-04-26T06:56:02.972Z,2.13
2019-04-26T06:59:36.322Z,2.10
2019-04-26T07:02:20.817Z,1.90
2019-04-26T07:05:07.272Z,1.90
2019-04-26T07:07:47.634Z,2.60
2019-04-26T07:10:56.571Z,2.67
2019-04-26T07:13:39.379Z,1.97
2019-04-26T07:16:23.877Z,2.93
2019-04-26T07:19:21.010Z,3.00
2019-04-26T07:22:35.300Z,2.70
2019-04-26T07:25:30.438Z,2.50
2019-04-26T07:28:22.867Z,2.80
2019-04-26T07:31:29.114Z,2.30
2019-04-26T07:34:37.545Z,3.50
2019-04-26T07:38:05.030Z,2.37
2019-04-26T07:41:28.334Z,2.73
2019-04-26T07:44:32.719Z,2.60
2019-04-26T07:47:45.438Z,2.43
2019-04-26T07:50:52.021Z,2.60
2019-04-26T07:53:59.953Z,1.97
2019-04-26T07:56:35.641Z,2.57
2019-04-26T07:59:47.037Z,2.20
2019-04-26T08:02:47.661Z,2.50
2019-04-26T08:05:50.385Z,2.30
2019-04-26T08:08:25.357Z,2.50
2019-04-26T08:11:20.457Z,2.77
2019-04-26T08:14:10.662Z,2.30
2019-04-26T08:16:50.645Z,2.40
2019-04-26T08:19:25.425Z,2.20
2019-04-26T08:22:15.392Z,2.10
2019-04-26T08:24:37.106Z,2.40
2019-04-26T08:27:23.613Z,2.33
2019-04-26T08:29:58.608Z,2.37
2019-04-26T08:32:34.247Z,2.47
2019-04-26T08:35:16.893Z,1.97
2019-04-26T08:37:44.798Z,1.80
2019-04-26T08:40:30.641Z,2.83
2019-04-26T08:43:16.117Z,2.53
2019-04-26T08:46:02.765Z,2.30
2019-04-26T08:48:32.741Z,2.73
2019-04-26T08:51:15.363Z,2.20
2019-04-26T08:53:46.562Z,2.93
2019-04-26T08:56:23.734Z,2.30
2019-04-26T08:59:02.290Z,2.27
2019-04-26T09:01:42.073Z,2.70
2019-04-26T09:04:22.318Z,2.57
2019-04-26T09:07:04.465Z,2.80
2019-04-26T09:09:39.134Z,2.93
2019-04-26T09:12:23.233Z,2.80
2019-04-26T09:15:12.004Z,3.00
2019-04-26T09:17:48.341Z,2.23
2019-04-26T09:20:28.628Z,3.63
2019-04-26T09:23:03.932Z,3.00
2019-04-26T09:25:58.706Z,2.67
2019-04-26T09:28:22.234Z,2.70
2019-04-26T09:30:55.331Z,2.40
2019-04-26T09:33:36.085Z,2.60
2019-04-26T09:36:10.002Z,2.70
2019-04-26T09:38:42.021Z,3.20
2019-04-26T09:41:12.341Z,3.00
2019-04-26T09:43:54.921Z,3.60
2019-04-26T09:46:48.506Z,3.40
2019-04-26T09:49:23.457Z,2.97
2019-04-26T09:51:56.353Z,3.00
2019-04-26T09:54:28.490Z,2.90
2019-04-26T09:56:58.593Z,2.20
2019-04-26T09:59:36.099Z,2.20
2019-04-26T10:02:05.273Z,2.73
2019-04-26T10:04:37.309Z,2.03
2019-04-26T10:07:07.177Z,3.20
2019-04-26T10:09:37.141Z,3.20
2019-04-26T10:12:20.261Z,3.90
2019-04-26T10:14:57.725Z,3.00
2019-04-26T10:17:29.474Z,3.50
2019-04-26T10:20:07.949Z,3.07
2019-04-26T10:22:39.058Z,2.80
2019-04-26T10:25:16.580Z,2.83
2019-04-26T10:27:54.851Z,2.77
2019-04-26T10:30:30.835Z,2.80
2019-04-26T10:33:02.158Z,3.37
2019-04-26T10:35:35.481Z,3.80
2019-04-26T10:38:05.641Z,4.03
2019-04-26T10:40:36.757Z,3.10
2019-04-26T10:43:16.135Z,3.27
2019-04-26T10:46:04.840Z,3.80
2019-04-26T10:48:34.669Z,3.23
2019-04-26T10:51:07.451Z,3.30
2019-04-26T10:53:51.441Z,3.80
2019-04-26T10:56:38.202Z,3.43
2019-04-26T10:59:23.050Z,3.10
2019-04-26T11:01:53.221Z,4.17
2019-04-26T11:04:32.331Z,3.20
2019-04-26T11:07:05.325Z,2.80
2019-04-26T11:09:47.653Z,2.50
2019-04-26T11:12:25.842Z,6.43
2019-04-26T11:14:56.909Z,4.00
2019-04-26T11:17:31.413Z,5.30
2019-04-26T11:20:01.581Z,4.00
2019-04-26T11:22:39.079Z,4.00
2019-04-26T11:25:11.806Z,3.37
2019-04-26T11:27:44.309Z,8.43
2019-04-26T11:30:20.616Z,3.17
2019-04-26T11:32:47.197Z,3.30
2019-04-26T11:35:17.293Z,2.80
2019-04-26T11:37:50.714Z,1.87
2019-04-26T11:40:25.893Z,2.27
2019-04-26T11:42:55.851Z,2.67
2019-04-26T11:45:26.197Z,2.40
2019-04-26T11:47:57.875Z,2.10
2019-04-26T11:50:53.652Z,2.13
2019-04-26T11:53:23.854Z,2.63
2019-04-26T11:56:05.987Z,2.43
2019-04-26T11:58:36.100Z,2.30
2019-04-26T12:01:07.849Z,2.20
2019-04-26T12:03:39.589Z,2.47
2019-04-26T12:06:17.533Z,2.40
2019-04-26T12:08:50.184Z,2.20
2019-04-26T12:11:34.184Z,2.20
2019-04-26T12:13:59.401Z,1.83
2019-04-26T12:16:31.805Z,2.40
2019-04-26T12:19:01.633Z,2.57
2019-04-26T12:21:34.118Z,2.20
2019-04-26T12:24:03.080Z,2.40
2019-04-26T12:26:42.542Z,2.30
2019-04-26T12:29:05.044Z,2.50
2019-04-26T12:31:40.942Z,2.27
2019-04-26T12:34:17.874Z,3.13
2019-04-26T12:36:49.101Z,3.40
2019-04-26T12:39:26.121Z,2.73
2019-04-26T12:42:08.112Z,3.20
2019-04-26T12:44:41.230Z,2.37
2019-04-26T12:47:13.999Z,3.30
2019-04-26T12:49:44.766Z,2.53
2019-04-26T12:52:17.488Z,2.90
2019-04-26T12:54:46.689Z,2.60
2019-04-26T12:57:26.630Z,2.90
2019-04-26T12:59:57.505Z,3.00
2019-04-26T13:02:28.803Z,2.60
2019-04-26T13:04:58.921Z,2.10
2019-04-26T13:07:35.129Z,1.80
2019-04-26T13:10:20.733Z,1.30
2019-04-26T13:13:01.485Z,2.17
2019-04-26T13:16:05.552Z,1.40
2019-04-26T13:18:41.136Z,1.87
2019-04-26T13:21:12.357Z,1.30
2019-04-26T13:23:51.102Z,1.70
2019-04-26T13:26:21.153Z,1.40
2019-04-26T13:28:57.089Z,1.40
2019-04-26T13:31:31.468Z,1.33
2019-04-26T13:33:58.363Z,1.77
2019-04-26T13:36:29.155Z,1.20
2019-04-26T13:38:59.253Z,1.27
2019-04-26T13:41:30.074Z,1.27
2019-04-26T13:44:01.256Z,1.03
2019-04-26T13:46:41.906Z,1.13
2019-04-26T13:49:18.174Z,1.57
2019-04-26T13:51:48.180Z,1.47
2019-04-26T13:54:22.711Z,1.70
2019-04-26T13:56:52.869Z,1.53
2019-04-26T13:59:22.961Z,1.30
2019-04-26T14:01:55.009Z,2.00
2019-04-26T14:04:25.154Z,1.97
2019-04-26T14:07:00.381Z,2.10
2019-04-26T14:09:30.469Z,1.70
2019-04-26T14:12:18.166Z,1.80
2019-04-26T14:14:43.321Z,2.00
2019-04-26T14:17:13.481Z,2.10
2019-04-26T14:19:45.368Z,2.43
2019-04-26T14:22:16.665Z,2.57
2019-04-26T14:24:52.947Z,1.87
2019-04-26T14:27:25.185Z,2.17
2019-04-26T14:29:55.273Z,2.00
2019-04-26T14:32:25.099Z,2.17
2019-04-26T14:34:54.809Z,2.23
2019-04-26T14:37:31.808Z,2.90
2019-04-26T14:40:15.987Z,2.37
2019-04-26T14:42:42.498Z,2.70
2019-04-26T14:45:08.550Z,2.30
2019-04-26T14:47:47.479Z,2.50
2019-04-26T14:50:17.754Z,2.67
2019-04-26T14:52:49.241Z,2.07
2019-04-26T14:55:21.071Z,1.90
2019-04-26T14:57:53.808Z,2.30
2019-04-26T15:00:25.187Z,2.30
2019-04-26T15:03:05.898Z,2.07
2019-04-26T15:05:56.685Z,2.80
2019-04-26T15:08:27.565Z,2.27
2019-04-26T15:11:00.873Z,2.13
2019-04-26T15:13:29.626Z,2.23
2019-04-26T15:16:10.343Z,2.90
2019-04-26T15:18:37.283Z,2.10
2019-04-26T15:21:07.017Z,2.70
2019-04-26T15:23:38.981Z,2.50
2019-04-26T15:26:09.077Z,3.00
2019-04-26T15:28:43.708Z,2.57
2019-04-26T15:31:17.223Z,2.70
2019-04-26T15:33:48.904Z,3.27
2019-04-26T15:36:16.429Z,3.17
2019-04-26T15:38:48.991Z,2.10
2019-04-26T15:41:36.933Z,3.60
2019-04-26T15:44:13.439Z,2.60
2019-04-26T15:46:48.586Z,3.40
2019-04-26T15:49:22.496Z,3.00
2019-04-26T15:51:56.403Z,3.30
2019-04-26T15:54:24.309Z,2.57
2019-04-26T15:56:55.310Z,6.60
2019-04-26T15:59:26.411Z,3.03
2019-04-26T16:01:56.575Z,3.80
2019-04-26T16:04:26.590Z,3.60
2019-04-26T16:06:59.600Z,3.10
2019-04-26T16:09:32.475Z,2.80
2019-04-26T16:12:03.596Z,3.07
2019-04-26T16:14:36.563Z,2.90
2019-04-26T16:17:06.671Z,3.07
2019-04-26T16:19:36.729Z,2.90
2019-04-26T16:22:06.409Z,2.90
2019-04-26T16:24:38.346Z,3.07
2019-04-26T16:27:10.227Z,2.97
2019-04-26T16:29:46.759Z,4.83
2019-04-26T16:32:30.250Z,2.90
2019-04-26T16:35:03.855Z,2.67
2019-04-26T16:37:35.194Z,3.20
2019-04-26T16:40:12.348Z,2.60
2019-04-26T16:42:40.214Z,2.80
2019-04-26T16:45:12.331Z,2.50
2019-04-26T16:47:47.336Z,2.77
2019-04-26T16:50:23.233Z,2.70
2019-04-26T16:52:47.906Z,3.40
2019-04-26T16:57:55.558Z,3.70
2019-04-26T17:00:44.993Z,2.40
2019-04-26T17:03:02.727Z,3.40
2019-04-26T17:05:45.464Z,2.53
2019-04-26T17:08:04.160Z,3.03
2019-04-26T17:09:51.083Z,4.20
2019-04-26T17:10:30.641Z,4.40
2019-04-26T17:13:00.482Z,3.30
2019-04-26T17:15:30.486Z,2.80
2019-04-26T17:18:07.370Z,2.87
2019-04-26T17:20:40.551Z,5.67
2019-04-26T17:23:12.455Z,2.70
2019-04-26T17:26:00.070Z,4.10
2019-04-26T17:28:32.499Z,1.90
2019-04-26T17:31:02.494Z,4.70
2019-04-26T17:33:32.726Z,4.30
2019-04-26T17:36:11.475Z,2.47
2019-04-26T17:38:42.004Z,1.90
2019-04-26T17:41:13.617Z,5.70
2019-04-26T17:43:47.085Z,3.40
2019-04-26T17:46:21.862Z,1.77
2019-04-26T17:48:53.950Z,1.93
2019-04-26T17:51:24.092Z,2.00
2019-04-26T17:54:18.981Z,2.17
2019-04-26T17:56:31.443Z,1.97
2019-04-26T17:59:03.227Z,1.83
2019-04-26T18:01:43.134Z,1.83
2019-04-26T18:04:11.291Z,2.30
2019-04-26T18:06:45.445Z,2.10
2019-04-26T18:09:38.148Z,2.10
2019-04-26T18:11:51.081Z,2.57
2019-04-26T18:14:21.930Z,1.93
2019-04-26T18:17:04.511Z,2.30
2019-04-26T18:19:39.401Z,2.57
2019-04-26T18:22:28.378Z,3.83
2019-04-26T18:24:57.538Z,2.60
2019-04-26T18:27:35.900Z,2.50
2019-04-26T18:30:27.384Z,2.67
2019-04-26T18:32:57.643Z,3.30
2019-04-26T18:35:43.495Z,2.40
2019-04-26T18:38:26.522Z,2.73
2019-04-26T18:41:01.143Z,3.80
2019-04-26T18:43:29.258Z,3.10
2019-04-26T18:46:03.330Z,3.70
2019-04-26T18:48:40.629Z,3.10
2019-04-26T18:51:11.190Z,3.43
2019-04-26T18:53:40.950Z,4.50
2019-04-26T18:56:13.666Z,4.63
2019-04-26T18:58:44.490Z,3.60
2019-04-26T19:01:16.410Z,4.57
2019-04-26T19:03:49.291Z,4.23
2019-04-26T19:06:28.682Z,4.37
2019-04-26T19:08:52.756Z,5.60
2019-04-26T19:11:32.717Z,5.30
2019-04-26T19:14:12.971Z,5.33
2019-04-26T19:16:46.360Z,8.47
2019-04-26T19:19:34.077Z,4.60
2019-04-26T19:22:05.513Z,4.57
2019-04-26T19:24:38.427Z,3.50
2019-04-26T19:27:07.166Z,3.70
2019-04-26T19:29:38.124Z,3.70
2019-04-26T19:32:08.230Z,5.57
2019-04-26T19:34:38.318Z,11.37
2019-04-26T19:37:08.415Z,4.70
2019-04-26T19:39:38.256Z,4.40
2019-04-26T19:42:15.070Z,4.70
2019-04-26T19:44:49.431Z,4.23
2019-04-26T19:47:39.435Z,5.23
2019-04-26T19:50:13.571Z,4.87
2019-04-26T19:55:47.303Z,5.13
2019-04-26T19:58:22.431Z,4.43
2019-04-26T20:01:01.962Z,4.97
2019-04-26T20:03:34.068Z,5.63
2019-04-26T20:06:18.539Z,4.70
2019-04-26T20:08:51.717Z,4.33
2019-04-26T20:11:22.666Z,4.50
2019-04-26T20:13:55.344Z,4.37
2019-04-26T20:19:33.689Z,4.97
2019-04-26T20:24:56.003Z,4.60
2019-04-26T20:27:41.381Z,4.63
2019-04-26T20:41:03.865Z,4.47
2019-04-26T20:43:36.760Z,4.87
2019-04-26T20:46:14.945Z,5.70
2019-04-26T20:48:52.013Z,4.73
2019-04-26T20:51:24.357Z,5.80
2019-04-26T20:54:00.005Z,5.10
2019-04-26T20:56:31.738Z,5.23
2019-04-26T20:59:01.786Z,5.90
2019-04-26T21:01:32.139Z,5.40
2019-04-26T21:04:08.022Z,5.23
2019-04-26T21:06:37.857Z,5.23
2019-04-26T21:09:09.536Z,5.20
2019-04-26T21:11:41.153Z,6.50
2019-04-26T21:14:12.954Z,6.93
2019-04-26T21:16:49.297Z,5.20
2019-04-26T21:19:18.961Z,6.67
2019-04-26T21:21:52.495Z,6.23
2019-04-26T21:24:25.150Z,5.67
2019-04-26T21:27:12.370Z,5.50
2019-04-26T21:30:03.379Z,5.67
2019-04-26T21:32:56.007Z,5.90
2019-04-26T21:35:28.570Z,5.53
2019-04-26T21:38:03.810Z,5.67
2019-04-26T21:40:37.862Z,5.83
2019-04-26T21:43:09.736Z,5.97
2019-04-26T21:45:40.742Z,6.27
2019-04-26T21:48:10.851Z,5.70
2019-04-26T21:50:47.771Z,6.43
2019-04-26T21:53:19.454Z,5.33
2019-04-26T21:55:49.174Z,4.87
2019-04-26T21:58:19.151Z,4.97
2019-04-26T22:00:56.374Z,5.50
2019-04-26T22:03:26.698Z,5.37
2019-04-26T22:05:56.594Z,5.50
2019-04-26T22:08:29.122Z,6.03
2019-04-26T22:10:59.922Z,4.87
2019-04-26T22:13:47.523Z,5.40
2019-04-26T22:16:35.998Z,6.00
2019-04-26T22:19:14.753Z,5.80
2019-04-26T22:21:55.411Z,5.73
2019-04-26T22:24:28.766Z,5.03
2019-04-26T22:27:04.906Z,5.80
2019-04-26T22:29:35.018Z,7.07
2019-04-26T22:32:05.247Z,5.40
2019-04-26T22:34:37.328Z,5.87
2019-04-26T22:37:14.781Z,5.90
2019-04-26T22:39:44.751Z,6.03
2019-04-26T22:42:14.430Z,6.50
2019-04-26T22:44:46.656Z,6.60
2019-04-26T22:47:20.222Z,6.13
2019-04-26T22:49:50.619Z,7.00
2019-04-26T22:52:20.776Z,6.03
2019-04-26T22:54:50.638Z,6.33
2019-04-26T22:57:20.316Z,6.83
2019-04-26T22:59:50.730Z,7.13
2019-04-26T23:02:26.216Z,6.53
2019-04-26T23:04:58.739Z,6.20
2019-04-26T23:07:33.148Z,6.57
2019-04-26T23:10:05.170Z,7.37
2019-04-26T23:12:48.967Z,7.60
2019-04-26T23:15:23.980Z,7.73
2019-04-26T23:18:09.471Z,8.10
2019-04-26T23:20:43.078Z,7.20
2019-04-26T23:23:13.520Z,7.77
2019-04-26T23:25:43.636Z,8.67
2019-04-26T23:28:13.467Z,8.03
2019-04-26T23:30:44.291Z,8.30
2019-04-26T23:33:15.168Z,8.47
2019-04-26T23:35:47.569Z,7.50
2019-04-26T23:38:16.826Z,8.60
2019-04-26T23:40:49.546Z,8.97
2019-04-26T23:43:24.008Z,9.23
2019-04-26T23:45:51.026Z,8.60
2019-04-26T23:48:20.994Z,9.67
2019-04-26T23:50:51.089Z,9.10
2019-04-26T23:53:21.394Z,8.40
2019-04-26T23:55:51.182Z,9.50
2019-04-26T23:58:22.967Z,8.90
